AirNav   Advertisement
 
 1454 users online  

2PA2 Hillview Airport
Auburn, Pennsylvania, USA


FAA INFORMATION EFFECTIVE 20 JULY 2017

Location

FAA Identifier: 2PA2
Lat/Long: 40-35-54.9600N / 076-08-13.0200W
40-35.916000N / 076-08.217000W
40.5986000 / -76.1369500
(estimated)
Elevation: 780 ft. / 238 m (estimated)
From city: 2 miles W of AUBURN, PA
Time zone: UTC -4 (UTC -5 during Standard Time)
Zip code: 17922

Airport Operations

Airport use: Private use. Permission required prior to landing
Activation date: 08/2012
Control tower: no
ARTCC: NEW YORK CENTER
FSS: WILLIAMSPORT FLIGHT SERVICE STATION
Attendance: UNATNDD
Segmented circle: no

Airport Communications

WX AWOS-3 at ZER (13 nm NW): 127.57 (570-544-2778)
WX ASOS at RDG (15 nm SE): PHONE 610-372-9863

Nearby radio navigation aids

VOR radial/distance  VOR name  Freq  Var
ETXr282/20.7EAST TEXAS VOR/DME110.2009W
RAVr094/21.2RAVINE VORTAC114.6011W
HZLr190/(22.6)HAZLETON VOR109.4009W
LRPr023/29.6LANCASTER VOR/DME117.3009W
FJCr266/32.0ALLENTOWN VORTAC117.5010W
PTWr320/34.7POTTSTOWN VORTAC116.5009W
MIPr146/35.0MILTON VORTAC109.2009W
SEGr117/35.9SELINSGROVE VORTAC110.4008W

 
NDB name  Hdg/Dist  Freq  Var  ID
BELLGROVE073/21.332810WBZJ -... --.. .---

Airport Services

Runway Information

Runway 8/26

Dimensions: 1200 x 100 ft. / 366 x 30 m
Surface: turf
RUNWAY 8  RUNWAY 26
Traffic pattern: leftleft

Airport Ownership and Management from official FAA records

Ownership: Privately-owned
Owner: HAROLD L. MILLER
12 HOCK ST
CRESSONA, PA 17929
Phone 570-385-0370
Manager: HAROLD L. MILLER
12 HOCK ST
CRESSONA, PA 17929
Phone 570-385-0370

Airport Operational Statistics

Aircraft based on the field: 1
Single engine airplanes: 1
    

Instrument Procedures

There are no published instrument procedures at 2PA2.

Some nearby airports with instrument procedures:

KZER - Schuylkill County (Joe Zerbey) Airport (13 nm NW)
KRDG - Reading Regional Airport/Carl A Spaatz Field (15 nm SE)
9D4 - Deck Airport (17 nm SW)
74N - Bendigo Airport (19 nm W)
08N - Keller Brothers Airport (20 nm SW)
 
Loc | Ops | Rwys | IFR | FBO | Links
Com | Nav | Svcs | Stats | Notes


 
Aerial photo
No photo
 
Airport distance calculator
Flying to Hillview Airport? Find the distance to fly.

From to 2PA2

Sunrise and sunset
Times for 28-Jul-2017
 Local
(UTC-4)
 Zulu
(UTC)
Morning civil twilight05:2809:28
Sunrise05:5909:59
Sunset20:2300:23
Evening civil twilight20:5400:54

Current date and time
Zulu (UTC)  28-Jul-2017 18:35:09
Local (UTC-4)  28-Jul-2017 14:35:09
 
METAR
KRDG 
16nm SE 
281754Z 11006KT 10SM FEW040 28/21 A2981 RMK AO2 SLP098 T02830206 10283 20206 58010
KMUI 
22nm SW 
281758Z AUTO 09006KT 10SM SCT032 SCT200 27/21 A2983 RMK AO2 SLP101 T02710205 10272 20222 57015
KHZL 
24nm N 
281815Z AUTO 01004KT 10SM -RA 25/18 A2991 RMK AO2 LTG DSNT S AND SW PNO
KXLL 
30nm E 
281815Z AUTO 07007KT 030V110 10SM SCT039 SCT047 SCT060 29/18 A2984 RMK AO2 LTG DSNT S AND SW
KLNS 
30nm S 
281753Z 09008KT 10SM BKN120 28/21 A2983 RMK AO2 SLP097 T02780211 10278 20228 56012
KABE 
31nm E 
281751Z 06006KT 10SM SCT039 BKN055 28/19 A2983 RMK AO2 SLP099 T02830194 10294 20206 58012
TAF
KRDG 
16nm SE 
281722Z 2818/2918 08005KT P6SM SCT025 FM282000 05008KT P6SM BKN025 OVC040 FM282200 05005KT 5SM -SHRA OVC025 TEMPO 2822/2902 3SM -TSRA BKN015CB FM290200 VRB03KT 3SM SHRA BR BKN015 OVC025 TEMPO 2902/2905 1SM +TSRA BKN008CB FM290500 05008KT 1SM +RA BR OVC005 FM291100 03010KT 3SM RA BR OVC015 FM291600 03012KT 5SM -SHRA BKN025 OVC035
NOTAMs
Click for the latest NOTAMs
NOTAMs are issued by the DoD/FAA and will open in a separate window not controlled by AirNav.

 

 
 

Would you like to see your business listed on this page?

 If your business provides an interesting product or service to pilots, flight crews, aircraft, or users of the Hillview Airport, you should consider listing it here.  To start the listing process, click on the button below
 
Add a business
 

Other Pages about Hillview Airport

Update a link
 
Copyright © AirNav, LLC. All rights reserved. Privacy Policy  Contact